Time;durP1;ratioP1;P1;durP2;ratioP2;P2;SDS_P1;SDS_P2;PMS_P1;PMS_P2;Temp;Humidity;BMP_temperature;BMP_pressure;BME280_temperature;BME280_humidity;BME280_pressure;Samples;Min_cycle;Max_cycle;Signal;HPM_P1;HPM_P2
2024/01/02 00:02:07;;;;;;;5.90;4.88;;;;;;;19.59;47.84;101167.00;5026822;28;20046;-65
2024/01/02 00:04:34;;;;;;;5.97;4.85;;;;;;;19.60;47.84;101173.22;5022954;28;20060;-68
2024/01/02 00:07:02;;;;;;;5.47;4.65;;;;;;;19.60;47.68;101170.53;5037398;28;20052;-64
2024/01/02 00:09:29;;;;;;;5.53;4.60;;;;;;;19.60;47.87;101168.69;5029817;28;20052;-61
2024/01/02 00:11:57;;;;;;;5.65;4.78;;;;;;;19.60;47.68;101166.00;5032729;28;20050;-63
2024/01/02 00:14:28;;;;;;;6.47;5.13;;;;;;;19.60;47.50;101166.00;5035047;28;20045;-65
2024/01/02 00:16:55;;;;;;;6.63;5.13;;;;;;;19.61;47.52;101174.94;5020200;28;20049;-66
2024/01/02 00:19:23;;;;;;;5.75;5.15;;;;;;;19.59;47.39;101167.00;5029653;28;20054;-64
2024/01/02 00:21:52;;;;;;;5.72;5.13;;;;;;;19.61;47.60;101175.81;5032499;28;20048;-65
2024/01/02 00:24:20;;;;;;;5.65;4.63;;;;;;;19.61;47.53;101177.63;5034679;28;20471;-65
2024/01/02 00:26:47;;;;;;;6.18;4.90;;;;;;;19.59;47.44;101175.03;5033362;28;20076;-64
2024/01/02 00:29:15;;;;;;;5.13;4.60;;;;;;;19.60;47.59;101171.38;5029850;28;20057;-62
2024/01/02 00:31:44;;;;;;;5.55;4.47;;;;;;;19.59;47.65;101158.94;5032697;28;20050;-64
2024/01/02 00:34:13;;;;;;;5.13;4.57;;;;;;;19.61;47.53;101158.81;5032958;28;20057;-63
2024/01/02 00:36:40;;;;;;;5.18;4.68;;;;;;;19.58;47.77;101151.88;5031922;28;20492;-64
2024/01/02 00:39:08;;;;;;;5.72;4.45;;;;;;;19.57;47.63;101139.44;5028947;28;20050;-64
2024/01/02 00:41:36;;;;;;;4.15;3.53;;;;;;;19.56;47.68;101148.44;5032642;28;20065;-64
2024/01/02 00:44:04;;;;;;;5.95;4.53;;;;;;;19.56;47.59;101144.91;5033428;28;20045;-64
2024/01/02 00:46:31;;;;;;;6.07;4.78;;;;;;;19.55;47.35;101146.75;5032824;28;20049;-64
2024/01/02 00:48:59;;;;;;;4.80;4.20;;;;;;;19.54;47.43;101138.81;5030247;28;20416;-64
2024/01/02 00:51:26;;;;;;;5.38;4.50;;;;;;;19.55;47.59;101140.50;5041831;28;20046;-64
2024/01/02 00:53:54;;;;;;;5.43;3.97;;;;;;;19.54;47.47;101136.97;5028385;28;20076;-65
2024/01/02 00:56:22;;;;;;;5.43;4.40;;;;;;;19.54;47.51;101131.59;5036637;28;20061;-64
2024/01/02 00:58:50;;;;;;;5.43;4.50;;;;;;;19.53;47.67;101135.28;5029515;28;20056;-64
2024/01/02 01:01:18;;;;;;;5.30;4.47;;;;;;;19.53;47.66;101129.91;5033418;28;20042;-64
2024/01/02 01:03:46;;;;;;;4.32;3.75;;;;;;;19.51;47.48;101130.03;5033414;28;20041;-64
2024/01/02 01:06:14;;;;;;;5.20;4.40;;;;;;;19.52;47.70;101137.09;5032501;28;20045;-64
2024/01/02 01:08:41;;;;;;;5.18;4.45;;;;;;;19.53;47.72;101140.66;5035040;28;20056;-64
2024/01/02 01:11:08;;;;;;;5.80;4.55;;;;;;;19.52;47.61;101147.81;5034835;28;20061;-65
2024/01/02 01:13:36;;;;;;;4.53;3.60;;;;;;;19.52;47.82;101146.97;5033002;28;20040;-65
2024/01/02 01:16:03;;;;;;;5.80;4.28;;;;;;;19.51;47.75;101145.28;5032424;28;20052;-65
2024/01/02 01:18:31;;;;;;;5.70;3.92;;;;;;;19.52;47.79;101144.28;5030259;28;20057;-64
2024/01/02 01:20:58;;;;;;;6.00;4.20;;;;;;;19.51;47.75;101143.44;5034725;28;20052;-64
2024/01/02 01:23:28;;;;;;;4.93;3.95;;;;;;;19.51;47.60;101145.28;5033070;28;20053;-65
2024/01/02 01:25:55;;;;;;;4.20;3.63;;;;;;;19.51;47.94;101145.28;5032269;28;20041;-64
2024/01/02 01:28:23;;;;;;;4.10;3.60;;;;;;;19.49;47.68;101145.41;5020681;28;20062;-64
2024/01/02 01:30:50;;;;;;;5.10;4.15;;;;;;;19.49;47.75;101145.41;5032825;28;20057;-65
2024/01/02 01:33:18;;;;;;;4.20;3.55;;;;;;;19.50;47.69;101148.94;5032525;28;20041;-65
2024/01/02 01:35:45;;;;;;;4.78;3.90;;;;;;;19.49;47.83;101144.56;5032727;28;20056;-65
2024/01/02 01:38:12;;;;;;;4.22;3.78;;;;;;;19.48;47.78;101142.84;5028215;28;20069;-64
2024/01/02 01:40:40;;;;;;;4.00;3.53;;;;;;;19.47;47.87;101152.72;5033811;28;20055;-66
2024/01/02 01:43:12;;;;;;;5.15;3.72;;;;;;;19.47;47.87;101150.03;5032001;28;20385;-66
2024/01/02 01:45:40;;;;;;;4.68;4.18;;;;;;;19.48;47.68;101158.94;5037035;28;20049;-66
2024/01/02 01:48:09;;;;;;;4.22;3.60;;;;;;;19.46;48.03;101151.03;5036063;28;20057;-64
2024/01/02 01:50:38;;;;;;;4.63;4.13;;;;;;;19.46;47.65;101158.22;5052261;28;20075;-64
2024/01/02 01:53:07;;;;;;;4.93;4.03;;;;;;;19.46;47.92;101156.41;5031724;28;20050;-64
2024/01/02 01:55:35;;;;;;;4.85;3.83;;;;;;;19.46;47.76;101167.13;5031054;28;20060;-64
2024/01/02 01:58:04;;;;;;;3.88;3.47;;;;;;;19.46;47.96;101169.81;5027372;28;20066;-64
2024/01/02 02:00:32;;;;;;;5.03;3.75;;;;;;;19.45;47.91;101157.38;5033482;28;20491;-64
2024/01/02 02:03:00;;;;;;;4.47;4.00;;;;;;;19.44;47.70;101150.28;5030655;28;20068;-64
2024/01/02 02:05:29;;;;;;;4.80;3.83;;;;;;;19.44;47.84;101152.13;5029265;28;20415;-64
2024/01/02 02:07:56;;;;;;;5.15;3.95;;;;;;;19.44;47.92;101160.19;5029268;28;20050;-64
2024/01/02 02:10:24;;;;;;;4.20;3.40;;;;;;;19.43;47.65;101153.97;5033993;28;20052;-64
2024/01/02 02:12:52;;;;;;;4.30;3.85;;;;;;;19.44;47.72;101149.44;5032571;28;20042;-64
2024/01/02 02:15:19;;;;;;;4.40;3.58;;;;;;;19.44;47.86;101152.13;5029029;28;20053;-64
2024/01/02 02:17:47;;;;;;;3.78;3.30;;;;;;;19.43;47.71;101158.47;5028369;28;20054;-64
2024/01/02 02:20:15;;;;;;;4.35;3.33;;;;;;;19.43;47.90;101158.47;5016604;28;20048;-66
2024/01/02 02:22:50;;;;;;;4.30;2.92;;;;;;;19.42;47.90;101152.25;5029942;28;20060;-66
2024/01/02 02:25:18;;;;;;;4.57;3.88;;;;;;;19.42;47.88;101140.66;5033214;28;20396;-66
2024/01/02 02:27:46;;;;;;;5.28;4.15;;;;;;;19.40;47.88;101132.72;5031483;28;20046;-64
2024/01/02 02:30:14;;;;;;;5.40;4.38;;;;;;;19.41;47.81;101133.59;5032490;28;20053;-64
2024/01/02 02:32:42;;;;;;;4.20;3.33;;;;;;;19.41;47.78;101128.22;5029746;28;20535;-64
2024/01/02 02:35:10;;;;;;;3.90;3.40;;;;;;;19.41;47.77;101130.91;5029374;28;20403;-64
2024/01/02 02:37:37;;;;;;;4.10;3.50;;;;;;;19.40;47.83;101135.41;5030736;28;20050;-65
2024/01/02 02:40:05;;;;;;;4.43;3.70;;;;;;;19.41;47.87;101136.28;5032230;28;20491;-64
2024/01/02 02:42:32;;;;;;;4.07;3.28;;;;;;;19.41;47.63;101138.97;5029485;28;20050;-64
2024/01/02 02:45:00;;;;;;;4.25;3.40;;;;;;;19.41;47.81;101134.44;5028938;28;20052;-64
2024/01/02 02:47:27;;;;;;;3.90;3.38;;;;;;;19.42;47.99;101127.25;5030648;28;20056;-65
2024/01/02 02:49:55;;;;;;;3.83;3.40;;;;;;;19.40;47.83;101119.28;5031408;28;20057;-66
2024/01/02 02:52:23;;;;;;;4.57;3.83;;;;;;;19.41;47.84;101117.50;5030201;28;20153;-66
2024/01/02 02:54:50;;;;;;;4.15;3.50;;;;;;;19.41;47.75;101114.81;5028678;28;20399;-66
2024/01/02 02:57:17;;;;;;;4.05;3.42;;;;;;;19.40;47.91;101123.81;5031912;28;20046;-64
2024/01/02 02:59:45;;;;;;;4.35;3.60;;;;;;;19.40;47.88;101124.66;5032704;28;20053;-64
2024/01/02 03:02:13;;;;;;;4.50;3.42;;;;;;;19.40;47.96;101123.81;5033311;28;20057;-64
2024/01/02 03:04:40;;;;;;;3.75;3.15;;;;;;;19.40;47.79;101131.88;5030932;28;20050;-64
2024/01/02 03:07:09;;;;;;;3.95;3.40;;;;;;;19.40;47.79;101132.72;5036062;28;20053;-65
2024/01/02 03:09:37;;;;;;;4.60;3.53;;;;;;;19.39;47.79;101136.38;5035989;28;20056;-66
2024/01/02 03:12:04;;;;;;;4.00;3.58;;;;;;;19.39;47.88;101140.91;5034896;28;20523;-66
2024/01/02 03:14:31;;;;;;;4.30;3.50;;;;;;;19.39;47.69;101138.22;5032116;28;20038;-66
2024/01/02 03:16:59;;;;;;;3.63;3.20;;;;;;;19.39;47.75;101136.38;5036261;28;20056;-64
2024/01/02 03:19:26;;;;;;;3.58;3.00;;;;;;;19.37;48.03;101142.88;5035503;28;20045;-64
2024/01/02 03:21:54;;;;;;;3.42;2.80;;;;;;;19.37;47.77;101149.09;5034583;28;20057;-65
2024/01/02 03:24:21;;;;;;;4.88;3.92;;;;;;;19.38;47.96;101141.91;5032355;28;20076;-64
2024/01/02 03:26:49;;;;;;;4.10;3.40;;;;;;;19.37;47.86;101149.09;5033540;28;20042;-65
2024/01/02 03:29:16;;;;;;;4.15;3.55;;;;;;;19.38;48.01;101152.63;5042664;28;20388;-65
2024/01/02 03:31:44;;;;;;;3.78;3.38;;;;;;;19.37;48.08;101149.09;5034231;28;20049;-66
2024/01/02 03:34:12;;;;;;;4.38;3.65;;;;;;;19.36;47.92;101142.00;5031720;28;20045;-66
2024/01/02 03:36:39;;;;;;;5.18;3.80;;;;;;;19.35;48.00;101140.31;5035889;28;20057;-65
2024/01/02 03:39:06;;;;;;;4.10;3.53;;;;;;;19.35;48.09;101134.09;5035192;28;20056;-66
2024/01/02 03:41:34;;;;;;;4.22;3.63;;;;;;;19.34;48.12;101133.22;5034054;28;20057;-66
2024/01/02 03:44:01;;;;;;;3.85;3.45;;;;;;;19.35;48.02;101139.44;5031262;28;20046;-66
2024/01/02 03:46:29;;;;;;;3.28;2.92;;;;;;;19.35;48.19;101136.78;5035470;28;20057;-65
2024/01/02 03:48:56;;;;;;;3.75;3.15;;;;;;;19.34;48.06;101127.00;5033511;28;20040;-66
2024/01/02 03:51:26;;;;;;;3.50;3.17;;;;;;;19.34;47.94;101132.38;5038784;28;20089;-66
2024/01/02 03:53:53;;;;;;;4.10;3.30;;;;;;;19.33;47.96;101131.53;5030575;28;20061;-66
2024/01/02 03:56:21;;;;;;;4.25;3.45;;;;;;;19.33;48.14;101134.22;5035468;28;20049;-65
2024/01/02 03:58:48;;;;;;;4.00;3.38;;;;;;;19.32;48.19;101129.81;5032835;28;20053;-66
2024/01/02 04:01:15;;;;;;;3.50;3.13;;;;;;;19.32;48.08;101129.81;5033903;28;20052;-66
2024/01/02 04:03:43;;;;;;;3.63;3.10;;;;;;;19.32;48.04;101132.50;5030527;28;20048;-66
2024/01/02 04:06:10;;;;;;;4.13;3.60;;;;;;;19.32;48.13;101128.97;5034728;28;20420;-65
2024/01/02 04:08:38;;;;;;;6.57;3.80;;;;;;;19.31;47.88;101116.53;5033812;28;20056;-65
2024/01/02 04:11:06;;;;;;;4.50;3.50;;;;;;;19.32;48.06;101123.59;5033093;28;20048;-64
2024/01/02 04:13:33;;;;;;;3.97;3.58;;;;;;;19.32;47.98;101127.13;5030318;28;20050;-65
2024/01/02 04:16:00;;;;;;;4.50;3.63;;;;;;;19.31;47.94;101128.09;5035132;28;20057;-65
2024/01/02 04:18:28;;;;;;;3.42;2.88;;;;;;;19.31;48.07;101120.06;5033921;28;20049;-65
2024/01/02 04:20:56;;;;;;;3.92;3.20;;;;;;;19.30;48.10;101115.66;5033810;28;20049;-65
2024/01/02 04:23:23;;;;;;;4.38;3.35;;;;;;;19.31;47.90;101116.53;5030997;28;20531;-65
2024/01/02 04:25:50;;;;;;;4.13;3.22;;;;;;;19.31;47.95;101114.69;5034558;28;20053;-65
2024/01/02 04:28:18;;;;;;;3.80;3.20;;;;;;;19.31;47.99;101108.47;5033207;28;20054;-65
2024/01/02 04:30:45;;;;;;;3.97;2.92;;;;;;;19.31;48.14;101113.84;5032977;28;20046;-65
2024/01/02 04:33:13;;;;;;;3.88;3.25;;;;;;;19.31;48.10;101119.22;5029886;28;20046;-65
2024/01/02 04:35:40;;;;;;;4.35;3.42;;;;;;;19.31;47.98;101127.25;5034157;28;20058;-65
2024/01/02 04:38:07;;;;;;;3.55;3.25;;;;;;;19.31;48.01;101129.94;5033461;28;20052;-67
2024/01/02 04:40:35;;;;;;;3.85;3.05;;;;;;;19.31;47.99;101127.25;5031758;28;20060;-67
2024/01/02 04:43:03;;;;;;;4.43;2.80;;;;;;;19.31;48.01;101127.25;5030096;28;20042;-65
2024/01/02 04:45:30;;;;;;;3.65;3.20;;;;;;;19.31;47.99;101127.25;5034112;28;20135;-65
2024/01/02 04:47:57;;;;;;;4.20;3.25;;;;;;;19.30;48.03;101122.88;5033729;28;20045;-65
2024/01/02 04:50:25;;;;;;;3.97;3.22;;;;;;;19.29;48.16;101113.13;5031185;28;20128;-65
2024/01/02 04:52:52;;;;;;;3.83;3.13;;;;;;;19.29;48.01;101123.88;5029768;28;20042;-65
2024/01/02 04:55:19;;;;;;;3.53;3.05;;;;;;;19.30;48.09;101114.81;5033511;28;20045;-65
2024/01/02 04:57:47;;;;;;;3.85;3.08;;;;;;;19.30;48.09;101114.81;5033262;28;20067;-64
2024/01/02 05:00:14;;;;;;;4.00;2.95;;;;;;;19.28;48.13;101112.25;5032645;28;20411;-63
2024/01/02 05:02:44;;;;;;;3.55;3.22;;;;;;;19.29;47.95;101113.13;5029502;28;20054;-65
2024/01/02 05:05:12;;;;;;;3.90;3.22;;;;;;;19.29;47.98;101118.50;5042776;28;20049;-64
2024/01/02 05:07:39;;;;;;;3.63;3.13;;;;;;;19.29;47.94;101110.44;5032750;28;20050;-65
2024/01/02 05:10:07;;;;;;;3.70;3.20;;;;;;;19.27;47.89;101095.28;5032768;28;20049;-65
2024/01/02 05:12:34;;;;;;;3.58;2.85;;;;;;;19.27;48.00;101092.59;5029429;28;20052;-65
2024/01/02 05:15:02;;;;;;;3.70;3.03;;;;;;;19.27;48.14;101084.56;5034638;28;20056;-66
2024/01/02 05:17:29;;;;;;;3.53;2.88;;;;;;;19.27;48.28;101081.88;5033048;28;20057;-65
2024/01/02 05:19:57;;;;;;;4.50;3.63;;;;;;;19.26;48.10;101087.38;5032284;28;20056;-65
2024/01/02 05:22:24;;;;;;;4.05;3.35;;;;;;;19.26;48.42;101082.00;5028597;28;20056;-65
2024/01/02 05:24:52;;;;;;;4.72;3.17;;;;;;;19.26;48.05;101073.94;5033978;28;20049;-65
2024/01/02 05:27:21;;;;;;;4.18;3.50;;;;;;;19.26;48.08;101063.22;5032576;28;20046;-63
2024/01/02 05:29:48;;;;;;;3.53;3.00;;;;;;;19.26;48.10;101073.94;5032109;28;20057;-64
2024/01/02 05:32:15;;;;;;;3.85;3.03;;;;;;;19.24;48.00;101084.81;5030074;28;20050;-64
2024/01/02 05:34:43;;;;;;;3.30;2.88;;;;;;;19.26;48.21;101088.22;5034359;28;20515;-66
2024/01/02 05:37:10;;;;;;;3.65;2.78;;;;;;;19.25;48.17;101099.09;5032745;28;20109;-66
2024/01/02 05:39:38;;;;;;;3.53;3.03;;;;;;;19.26;48.10;101095.44;5032541;28;20048;-66
2024/01/02 05:42:05;;;;;;;3.67;2.70;;;;;;;19.24;48.16;101095.56;5028623;28;20042;-66
2024/01/02 05:44:32;;;;;;;3.50;2.70;;;;;;;19.23;48.04;101088.47;5033848;28;20052;-66
2024/01/02 05:47:00;;;;;;;3.58;2.70;;;;;;;19.23;48.06;101085.78;5032048;28;20395;-65
2024/01/02 05:49:27;;;;;;;3.63;2.70;;;;;;;19.23;47.95;101099.19;5030300;28;20057;-66
2024/01/02 05:51:56;;;;;;;2.92;2.28;;;;;;;19.23;47.97;101101.03;5028866;28;20500;-66
2024/01/02 05:54:24;;;;;;;3.20;2.40;;;;;;;19.23;48.03;101103.72;5033968;28;20427;-66
2024/01/02 05:56:51;;;;;;;3.88;2.85;;;;;;;19.22;48.06;101104.69;5031737;28;20045;-65
2024/01/02 05:59:18;;;;;;;3.40;2.85;;;;;;;19.22;47.79;101110.06;5032023;28;20050;-65
2024/01/02 06:01:46;;;;;;;3.70;2.97;;;;;;;19.22;48.12;101108.25;5028461;28;20042;-64
2024/01/02 06:04:13;;;;;;;3.60;2.83;;;;;;;19.22;47.79;101113.59;5033709;28;20049;-64
2024/01/02 06:06:40;;;;;;;4.00;2.53;;;;;;;19.21;47.84;101117.28;5031471;28;20093;-66
2024/01/02 06:09:08;;;;;;;3.22;2.67;;;;;;;19.21;47.75;101111.91;5035878;28;20088;-65
2024/01/02 06:11:35;;;;;;;3.72;2.92;;;;;;;19.22;48.05;101116.28;5027474;28;20443;-64
2024/01/02 06:14:03;;;;;;;3.30;2.38;;;;;;;19.23;47.85;101122.50;5033486;28;20045;-63
2024/01/02 06:16:31;;;;;;;3.67;2.95;;;;;;;19.23;47.81;101142.16;5032218;28;20058;-64
2024/01/02 06:18:58;;;;;;;3.15;2.33;;;;;;;19.22;47.87;101140.44;5024425;28;20053;-62
2024/01/02 06:21:25;;;;;;;3.47;2.78;;;;;;;19.22;47.93;101129.72;5026630;28;20049;-65
2024/01/02 06:23:53;;;;;;;3.85;2.95;;;;;;;19.22;47.79;101129.72;5032394;28;20067;-65
2024/01/02 06:26:23;;;;;;;3.35;2.35;;;;;;;19.23;47.80;101130.56;5023743;28;20041;-63
2024/01/02 06:28:51;;;;;;;3.10;2.50;;;;;;;19.23;47.60;101119.81;5031395;28;20057;-63
2024/01/02 06:31:21;;;;;;;3.47;2.55;;;;;;;19.23;48.01;101122.50;5028003;28;20401;-63
2024/01/02 06:33:49;;;;;;;2.85;2.35;;;;;;;19.22;47.86;101132.41;5035682;28;20060;-63
2024/01/02 06:36:17;;;;;;;3.35;2.67;;;;;;;19.23;47.91;101128.72;5035496;28;20044;-64
2024/01/02 06:38:44;;;;;;;3.30;2.42;;;;;;;19.22;47.81;101132.41;5039566;28;20052;-63
2024/01/02 06:41:12;;;;;;;3.05;2.40;;;;;;;19.22;47.97;101139.59;5031790;28;20045;-64
2024/01/02 06:43:39;;;;;;;3.33;2.40;;;;;;;19.21;48.09;101133.38;5040624;28;20048;-64
2024/01/02 06:46:07;;;;;;;3.05;2.42;;;;;;;19.21;47.91;101133.38;5035549;28;20046;-64
2024/01/02 06:48:34;;;;;;;3.95;2.70;;;;;;;19.21;47.88;101128.00;5035621;28;20052;-64
2024/01/02 06:51:02;;;;;;;3.30;2.45;;;;;;;19.20;48.00;101137.06;5032027;28;20075;-63
2024/01/02 06:53:29;;;;;;;3.08;2.05;;;;;;;19.20;47.91;101139.72;5040106;28;20045;-64
2024/01/02 06:55:56;;;;;;;3.40;2.60;;;;;;;19.19;47.99;101137.16;5034875;28;20045;-64
2024/01/02 06:58:24;;;;;;;4.63;2.75;;;;;;;19.20;47.98;101141.53;5033980;28;20053;-64
2024/01/02 07:00:51;;;;;;;3.17;2.70;;;;;;;19.19;47.73;101131.78;5031226;28;20050;-64
2024/01/02 07:03:20;;;;;;;3.58;2.63;;;;;;;19.18;47.85;101141.66;5039679;28;20052;-64
2024/01/02 07:05:48;;;;;;;3.47;2.47;;;;;;;19.18;47.69;101149.72;5034803;28;20042;-63
2024/01/02 07:08:16;;;;;;;3.63;2.63;;;;;;;19.18;47.79;101144.34;5035405;28;20060;-65
2024/01/02 07:10:43;;;;;;;3.45;2.63;;;;;;;19.18;47.97;101152.41;5031123;28;20404;-64
2024/01/02 07:13:11;;;;;;;3.25;2.53;;;;;;;19.17;47.85;101147.16;5040173;28;20052;-64
2024/01/02 07:15:39;;;;;;;3.50;2.65;;;;;;;19.16;47.98;101151.69;5034301;28;20045;-64
2024/01/02 07:18:06;;;;;;;3.80;2.35;;;;;;;19.17;47.86;101145.34;5033985;28;20407;-65
2024/01/02 07:20:34;;;;;;;2.80;2.40;;;;;;;19.17;47.88;101161.44;5030895;28;20046;-65
2024/01/02 07:23:02;;;;;;;3.22;2.40;;;;;;;19.16;47.84;101162.44;5037347;28;20057;-63
2024/01/02 07:25:30;;;;;;;3.03;2.30;;;;;;;19.16;47.86;101165.09;5034493;28;20048;-64
2024/01/02 07:27:57;;;;;;;5.20;2.60;;;;;;;19.16;47.92;101167.78;5033650;28;20061;-65
2024/01/02 07:30:27;;;;;;;3.90;2.17;;;;;;;19.15;47.73;101174.13;5030671;28;20050;-64
2024/01/02 07:32:55;;;;;;;3.08;2.20;;;;;;;19.15;47.82;101174.13;5036902;28;20045;-63
2024/01/02 07:35:23;;;;;;;4.13;3.22;;;;;;;19.14;47.87;101175.09;5029454;28;20476;-63
2024/01/02 07:37:50;;;;;;;3.22;2.38;;;;;;;19.14;48.01;101183.16;5033160;28;20423;-63
2024/01/02 07:40:18;;;;;;;3.42;2.55;;;;;;;19.15;47.89;101182.16;5031378;28;20038;-63
2024/01/02 07:42:45;;;;;;;3.28;2.42;;;;;;;19.15;47.96;101187.53;5036699;28;20522;-63
2024/01/02 07:45:13;;;;;;;3.83;2.35;;;;;;;19.15;47.90;101182.16;5033575;28;20072;-63
2024/01/02 07:47:40;;;;;;;3.22;2.28;;;;;;;19.15;48.02;101184.84;5032687;28;20100;-63
2024/01/02 07:50:07;;;;;;;3.70;2.03;;;;;;;19.17;47.83;101187.44;5031586;28;20054;-63
2024/01/02 07:52:35;;;;;;;3.00;2.38;;;;;;;19.15;47.93;101184.84;5036832;28;20455;-63
2024/01/02 07:55:03;;;;;;;3.35;2.58;;;;;;;19.15;47.81;101186.69;5034094;28;20042;-63
2024/01/02 07:57:30;;;;;;;3.38;2.70;;;;;;;19.15;47.73;101184.84;5041927;28;20049;-64
2024/01/02 07:59:57;;;;;;;4.20;2.22;;;;;;;19.16;48.10;101183.91;5033668;28;20053;-63
2024/01/02 08:02:25;;;;;;;3.03;2.05;;;;;;;19.18;47.68;101184.63;5030733;28;20038;-64
2024/01/02 08:04:52;;;;;;;3.03;2.15;;;;;;;19.19;47.89;101178.25;5044156;28;20417;-64
2024/01/02 08:07:20;;;;;;;4.03;2.92;;;;;;;19.17;47.43;101174.84;5033020;28;20411;-63
2024/01/02 08:09:47;;;;;;;3.85;3.25;;;;;;;19.11;46.27;101169.13;5031207;28;20045;-63
2024/01/02 08:12:14;;;;;;;4.65;3.63;;;;;;;19.07;44.51;101171.19;5026137;28;20040;-63
2024/01/02 08:14:42;;;;;;;3.97;3.22;;;;;;;19.06;45.53;101164.13;5035567;28;20045;-63
2024/01/02 08:17:10;;;;;;;3.65;2.78;;;;;;;19.06;45.74;101165.97;5035540;28;20050;-64
2024/01/02 08:19:38;;;;;;;3.60;2.72;;;;;;;19.08;46.05;101167.56;5042465;28;20044;-64
2024/01/02 08:22:05;;;;;;;3.42;2.33;;;;;;;19.09;46.57;101158.50;5037490;28;20044;-65
2024/01/02 08:24:32;;;;;;;4.43;2.92;;;;;;;19.11;46.49;101164.59;5035300;28;20061;-65
2024/01/02 08:27:00;;;;;;;3.28;2.35;;;;;;;19.12;46.55;101152.03;5035347;28;20045;-64
2024/01/02 08:29:28;;;;;;;4.70;2.90;;;;;;;19.13;46.56;101157.28;5033188;28;20416;-64
2024/01/02 08:31:55;;;;;;;4.90;2.42;;;;;;;19.14;46.56;101164.38;5038170;28;20048;-68
2024/01/02 08:34:23;;;;;;;3.13;2.47;;;;;;;19.14;46.68;101161.69;5034991;28;20407;-64
2024/01/02 08:36:50;;;;;;;3.47;2.40;;;;;;;19.16;46.52;101167.78;5035236;28;20044;-66
2024/01/02 08:39:17;;;;;;;3.10;2.38;;;;;;;19.16;46.83;101162.44;5032470;28;20049;-64
2024/01/02 08:41:45;;;;;;;3.80;2.60;;;;;;;19.18;46.73;101144.34;5037377;28;20398;-65
2024/01/02 08:44:12;;;;;;;3.35;2.30;;;;;;;19.18;46.70;101141.66;5034740;28;20049;-62
2024/01/02 08:46:40;;;;;;;2.95;2.42;;;;;;;19.19;46.55;101137.16;5034998;28;20045;-62
2024/01/02 08:49:08;;;;;;;3.88;2.30;;;;;;;19.19;46.67;101135.31;5032617;28;20052;-62
2024/01/02 08:51:36;;;;;;;3.80;2.40;;;;;;;19.20;46.48;101126.31;5037194;28;20439;-63
2024/01/02 08:54:04;;;;;;;3.10;2.20;;;;;;;19.20;47.07;101129.00;5035173;28;20518;-63
2024/01/02 08:56:31;;;;;;;6.00;2.50;;;;;;;19.20;46.71;101126.31;5033391;28;20042;-63
2024/01/02 08:58:58;;;;;;;3.22;2.75;;;;;;;19.22;47.17;101128.88;5032195;28;20065;-62
2024/01/02 09:01:26;;;;;;;3.90;2.85;;;;;;;19.20;46.38;101131.69;5036989;28;20053;-62
2024/01/02 09:03:54;;;;;;;3.80;3.17;;;;;;;19.18;45.66;101130.94;5034363;28;20041;-61
2024/01/02 09:06:21;;;;;;;4.40;2.72;;;;;;;19.19;45.84;101121.03;5034353;28;20052;-63
2024/01/02 09:08:49;;;;;;;4.63;3.17;;;;;;;19.17;46.05;101123.03;5032835;28;20501;-63
2024/01/02 09:11:17;;;;;;;4.00;3.15;;;;;;;19.16;45.46;101124.84;5031241;28;20042;-63
2024/01/02 09:13:44;;;;;;;4.75;3.42;;;;;;;19.14;44.99;101116.06;5026877;28;20072;-63
2024/01/02 09:16:11;;;;;;;5.18;3.67;;;;;;;19.15;44.90;101127.63;5034379;28;20042;-63
2024/01/02 09:18:39;;;;;;;3.83;3.13;;;;;;;19.14;44.94;101132.16;5040322;28;20479;-65
2024/01/02 09:21:06;;;;;;;4.55;3.30;;;;;;;19.14;44.69;101125.94;5036996;28;20045;-65
2024/01/02 09:23:34;;;;;;;5.07;3.53;;;;;;;19.17;44.92;101125.69;5034132;28;20052;-57
2024/01/02 09:26:06;;;;;;;4.68;3.35;;;;;;;19.19;45.04;101126.41;5034213;28;20042;-60
2024/01/02 09:28:34;;;;;;;5.70;3.53;;;;;;;19.21;44.87;101119.97;5033393;28;20428;-62
2024/01/02 09:31:02;;;;;;;3.60;2.63;;;;;;;19.23;45.18;101123.34;5035774;28;20044;-66
2024/01/02 09:33:29;;;;;;;3.50;2.78;;;;;;;19.27;45.52;101123.97;5033982;28;20057;-64
2024/01/02 09:35:57;;;;;;;4.30;3.33;;;;;;;19.29;45.57;101121.19;5034231;28;20061;-63
2024/01/02 09:38:25;;;;;;;3.65;2.90;;;;;;;19.31;45.51;101116.53;5037036;28;20049;-61
2024/01/02 09:41:02;;;;;;;5.82;3.22;;;;;;;19.32;45.57;101113.69;5035364;28;20056;-57
2024/01/02 09:43:42;;;;;;;3.78;2.92;;;;;;;19.32;45.37;101119.06;5034111;28;20377;-57
2024/01/02 09:46:17;;;;;;;5.45;2.70;;;;;;;19.33;45.62;101114.59;5031935;28;20177;-59
2024/01/02 09:49:18;;;;;;;4.20;2.80;;;;;;;19.32;45.84;101129.81;5035355;28;20056;-58
2024/01/02 09:52:21;;;;;;;3.60;2.50;;;;;;;19.33;45.79;101139.59;5034107;28;20041;-55
2024/01/02 09:54:53;;;;;;;5.53;2.47;;;;;;;19.35;45.85;101142.13;5047229;28;20044;-57
2024/01/02 09:57:58;;;;;;;3.75;2.85;;;;;;;19.42;45.39;101156.78;5040231;28;20049;-60
2024/01/02 10:00:41;;;;;;;5.95;3.17;;;;;;;19.48;45.13;101148.22;5044109;28;20053;-53
2024/01/02 10:03:14;;;;;;;4.90;2.55;;;;;;;19.47;45.06;101133.94;5033899;28;20068;-61
2024/01/02 10:05:57;;;;;;;3.92;2.50;;;;;;;19.45;45.29;101135.91;5032680;28;20408;-61
2024/01/02 10:08:43;;;;;;;;;;;;;;;19.42;45.40;101130.78;5043416;28;20049;-62
2024/01/02 10:11:23;;;;;;;3.55;2.50;;;;;;;19.40;45.56;101118.44;5043108;28;19927;-62
2024/01/02 10:13:52;;;;;;;5.18;2.63;;;;;;;19.40;45.60;101115.75;5021084;28;20046;-63
2024/01/02 10:16:35;;;;;;;5.90;2.63;;;;;;;19.39;45.60;101114.06;5038396;28;20041;-61
2024/01/02 10:19:25;;;;;;;4.55;2.13;;;;;;;19.37;45.58;101099.94;5044408;28;20060;-59
2024/01/02 10:22:09;;;;;;;4.90;2.78;;;;;;;19.36;45.65;101096.38;5038598;28;20057;-58
2024/01/02 10:24:56;;;;;;;5.47;2.58;;;;;;;19.38;45.79;101107.00;5029907;28;20053;-57
2024/01/02 10:27:37;;;;;;;5.60;2.65;;;;;;;19.37;45.81;101100.78;5036362;28;20049;-57
2024/01/02 10:30:06;;;;;;;3.20;2.38;;;;;;;19.38;45.97;101102.47;5047884;28;20056;-56
2024/01/02 10:32:56;;;;;;;3.67;2.60;;;;;;;19.37;45.99;101102.63;5038482;28;20419;-58
2024/01/02 10:35:44;;;;;;;5.85;2.92;;;;;;;19.39;46.03;101100.63;5037533;28;20050;-58
2024/01/02 10:38:24;;;;;;;4.93;2.63;;;;;;;19.35;45.96;101091.97;5027692;28;20046;-62
2024/01/02 10:41:17;;;;;;;6.60;2.47;;;;;;;19.34;45.89;101084.06;5037664;28;20395;-64
2024/01/02 10:44:29;;;;;;;3.30;2.30;;;;;;;19.34;46.10;101081.38;5048031;28;20061;-63
2024/01/02 10:47:21;;;;;;;4.25;2.17;;;;;;;19.31;45.98;101089.69;5036775;28;20049;-58
2024/01/02 10:49:56;;;;;;;3.67;2.53;;;;;;;19.29;45.84;101072.84;5047826;28;20060;-58
2024/01/02 10:52:34;;;;;;;4.68;2.80;;;;;;;19.29;45.91;101056.75;5037771;28;20050;-58
2024/01/02 10:55:23;;;;;;;3.60;2.58;;;;;;;19.27;45.87;101056.84;5034520;28;20050;-58
2024/01/02 10:58:06;;;;;;;3.85;2.38;;;;;;;19.26;45.90;101056.00;5027200;28;20045;-58
2024/01/02 11:01:04;;;;;;;4.40;2.85;;;;;;;19.26;45.90;101055.16;5035996;28;20106;-58
2024/01/02 11:03:40;;;;;;;3.90;2.47;;;;;;;19.25;46.00;101054.31;5048346;28;20048;-58
2024/01/02 11:06:17;;;;;;;4.18;2.28;;;;;;;19.25;45.87;101053.47;5037343;28;20053;-58
2024/01/02 11:09:00;;;;;;;4.75;2.58;;;;;;;19.26;45.85;101045.28;5039923;28;20052;-63
2024/01/02 11:11:29;;;;;;;;;;;;;;;19.22;45.82;101046.50;5038029;28;20053;-58
2024/01/02 11:13:58;;;;;;;3.30;2.55;;;;;;;19.25;45.77;101056.16;5024865;28;19931;-58
2024/01/02 11:16:27;;;;;;;3.53;1.92;;;;;;;19.25;46.07;101048.09;5033214;28;20522;-61
2024/01/02 11:18:59;;;;;;;3.80;2.50;;;;;;;19.25;46.10;101048.09;5038316;28;20049;-62
2024/01/02 11:21:51;;;;;;;10.27;8.88;;;;;;;19.24;45.79;101052.63;5025253;28;20484;-61
2024/01/02 11:24:24;;;;;;;10.40;8.57;;;;;;;19.24;46.46;101044.56;5036349;28;20072;-62
2024/01/02 11:26:56;;;;;;;;;;;;;;;19.16;45.30;101044.34;5047573;28;20411;-59
2024/01/02 11:29:28;;;;;;;6.90;6.20;;;;;;;18.98;43.05;101032.41;5036960;28;19921;-59
2024/01/02 11:31:57;;;;;;;7.13;5.15;;;;;;;18.84;42.76;101027.28;5036791;28;20427;-59
2024/01/02 11:34:30;;;;;;;6.63;5.03;;;;;;;18.78;46.70;101018.78;5036899;28;20416;-59
2024/01/02 11:37:22;;;;;;;6.97;5.60;;;;;;;18.75;48.30;101019.00;5038277;28;20411;-60
2024/01/02 11:40:03;;;;;;;7.22;6.15;;;;;;;18.76;50.18;101018.06;5036448;28;20046;-59